createdAt,value
2023-02-05T00:00:51.724Z,89.80
2023-02-05T00:03:22.962Z,89.70
2023-02-05T00:05:51.197Z,89.60
2023-02-05T00:08:19.371Z,89.60
2023-02-05T00:10:52.762Z,89.60
2023-02-05T00:13:20.987Z,89.60
2023-02-05T00:15:49.190Z,89.60
2023-02-05T00:18:18.789Z,89.60
2023-02-05T00:20:47.095Z,89.60
2023-02-05T00:23:15.381Z,89.60
2023-02-05T00:25:43.650Z,89.60
2023-02-05T00:28:11.919Z,89.60
2023-02-05T00:30:42.773Z,90.20
2023-02-05T00:33:11.045Z,89.50
2023-02-05T00:35:42.905Z,89.50
2023-02-05T00:38:12.804Z,89.50
2023-02-05T00:40:41.055Z,89.60
2023-02-05T00:43:11.123Z,89.70
2023-02-05T00:45:39.404Z,89.50
2023-02-05T00:48:08.258Z,89.60
2023-02-05T00:50:37.134Z,89.50
2023-02-05T00:53:06.909Z,89.60
2023-02-05T00:55:36.537Z,89.60
2023-02-05T00:58:04.848Z,89.60
2023-02-05T01:00:33.971Z,89.60
2023-02-05T01:03:02.426Z,89.70
2023-02-05T01:05:31.683Z,89.70
2023-02-05T01:08:00.096Z,89.60
2023-02-05T01:10:29.721Z,89.60
2023-02-05T01:12:58.117Z,89.60
2023-02-05T01:15:26.804Z,89.60
2023-02-05T01:17:55.033Z,89.60
2023-02-05T01:20:23.297Z,89.70
2023-02-05T01:22:51.455Z,89.60
2023-02-05T01:25:19.800Z,89.60
2023-02-05T01:27:49.507Z,89.60
2023-02-05T01:30:18.233Z,89.50
2023-02-05T01:32:46.437Z,89.40
2023-02-05T01:35:14.684Z,89.50
2023-02-05T01:37:42.935Z,89.60
2023-02-05T01:40:14.803Z,89.50
2023-02-05T01:42:43.817Z,89.40
2023-02-05T01:45:51.725Z,89.50
2023-02-05T01:48:23.380Z,89.40
2023-02-05T01:50:54.873Z,89.50
2023-02-05T01:53:25.842Z,89.40
2023-02-05T01:55:58.214Z,89.40
2023-02-05T01:58:30.726Z,89.40
2023-02-05T02:01:00.292Z,89.30
2023-02-05T02:03:31.448Z,89.40
2023-02-05T02:05:59.990Z,89.40
2023-02-05T02:08:28.332Z,89.60
2023-02-05T02:10:57.970Z,89.60
2023-02-05T02:13:29.120Z,90.10
2023-02-05T02:15:58.736Z,89.40
2023-02-05T02:18:29.695Z,89.60
2023-02-05T02:21:20.747Z,89.50
2023-02-05T02:24:10.672Z,89.60
2023-02-05T02:27:07.608Z,89.70
2023-02-05T02:29:41.852Z,89.60
2023-02-05T02:32:17.086Z,89.60
2023-02-05T02:34:49.535Z,89.60
2023-02-05T02:37:25.179Z,89.60
2023-02-05T02:40:00.012Z,89.70
2023-02-05T02:42:34.450Z,89.70
2023-02-05T02:45:08.260Z,89.60
2023-02-05T02:47:39.311Z,89.60
2023-02-05T02:50:11.773Z,90.10
2023-02-05T02:52:45.315Z,89.60
2023-02-05T02:55:15.998Z,89.60
2023-02-05T02:57:49.668Z,89.60
2023-02-05T03:00:23.059Z,89.70
2023-02-05T03:02:54.429Z,89.60
2023-02-05T03:05:24.818Z,89.60
2023-02-05T03:07:57.303Z,89.60
2023-02-05T03:10:32.082Z,89.40
2023-02-05T03:13:00.674Z,89.70
2023-02-05T03:15:32.769Z,89.60
2023-02-05T03:18:01.245Z,89.60
2023-02-05T03:20:33.744Z,89.50
2023-02-05T03:23:02.354Z,89.60
2023-02-05T03:25:31.236Z,89.40
2023-02-05T03:28:01.700Z,89.60
2023-02-05T03:30:42.566Z,89.60
2023-02-05T03:33:25.598Z,89.60
2023-02-05T03:36:01.219Z,89.60
2023-02-05T03:38:44.065Z,89.60
2023-02-05T03:41:21.770Z,89.60
2023-02-05T03:44:01.785Z,89.60
2023-02-05T03:46:39.150Z,89.70
2023-02-05T03:49:17.895Z,89.70
2023-02-05T03:51:52.154Z,89.70
2023-02-05T03:54:29.402Z,89.60
2023-02-05T03:57:04.673Z,89.60
2023-02-05T03:59:38.070Z,89.50
2023-02-05T04:02:09.216Z,89.60
2023-02-05T04:04:41.823Z,89.60
2023-02-05T04:07:11.496Z,89.60
2023-02-05T04:09:40.328Z,89.40
2023-02-05T04:12:10.112Z,89.40
2023-02-05T04:14:39.869Z,89.40
2023-02-05T04:17:11.145Z,89.50
2023-02-05T04:19:41.412Z,89.60
2023-02-05T04:22:10.043Z,89.70
2023-02-05T04:24:41.761Z,89.60
2023-02-05T04:27:10.497Z,89.60
2023-02-05T04:29:39.179Z,89.50
2023-02-05T04:32:09.395Z,89.50
2023-02-05T04:34:37.577Z,89.50
2023-02-05T04:37:07.996Z,89.50
2023-02-05T04:39:36.228Z,89.60
2023-02-05T04:42:04.488Z,89.40
2023-02-05T04:44:32.748Z,89.40
2023-02-05T04:47:01.114Z,89.30
2023-02-05T04:49:32.882Z,89.50
2023-02-05T04:52:01.159Z,89.60
2023-02-05T04:54:29.848Z,89.80
2023-02-05T04:56:58.077Z,89.90
2023-02-05T04:59:26.336Z,90.00
2023-02-05T05:01:54.551Z,90.30
2023-02-05T05:04:22.783Z,90.00
2023-02-05T05:06:52.314Z,90.40
2023-02-05T05:09:23.960Z,90.00
2023-02-05T05:11:52.349Z,90.00
2023-02-05T05:14:20.671Z,90.00
2023-02-05T05:16:49.581Z,90.00
2023-02-05T05:19:18.449Z,90.00
2023-02-05T05:21:46.581Z,90.00
2023-02-05T05:24:16.137Z,90.00
2023-02-05T05:26:45.160Z,90.00
2023-02-05T05:29:14.543Z,90.00
2023-02-05T05:31:43.423Z,90.10
2023-02-05T05:34:11.628Z,90.10
2023-02-05T05:36:43.639Z,90.10
2023-02-05T05:39:29.733Z,90.20
2023-02-05T05:42:16.871Z,90.20
2023-02-05T05:44:45.371Z,90.10
2023-02-05T05:47:13.524Z,90.20
2023-02-05T05:49:41.668Z,90.20
2023-02-05T05:52:09.831Z,90.20
2023-02-05T05:54:38.074Z,90.20
2023-02-05T05:57:09.015Z,90.20
2023-02-05T05:59:37.519Z,90.30
2023-02-05T06:02:06.009Z,90.30
2023-02-05T06:04:34.269Z,90.40
2023-02-05T06:07:02.492Z,90.40
2023-02-05T06:09:30.828Z,90.50
2023-02-05T06:11:59.123Z,90.50
2023-02-05T06:14:28.821Z,90.50
2023-02-05T06:16:57.078Z,90.60
2023-02-05T06:19:25.450Z,90.60
2023-02-05T06:21:53.746Z,90.60
2023-02-05T06:24:22.170Z,90.70
2023-02-05T06:26:50.393Z,90.70
2023-02-05T06:29:18.595Z,90.70
2023-02-05T06:31:48.233Z,90.70
2023-02-05T06:34:16.556Z,90.80
2023-02-05T06:36:44.780Z,90.80
2023-02-05T06:39:13.016Z,90.80
2023-02-05T06:41:41.236Z,90.80
2023-02-05T06:44:09.457Z,90.80
2023-02-05T06:46:37.673Z,90.80
2023-02-05T06:49:07.234Z,90.80
2023-02-05T06:51:35.451Z,90.80
2023-02-05T06:54:03.903Z,90.80
2023-02-05T06:56:32.076Z,90.80
2023-02-05T06:59:00.261Z,90.80
2023-02-05T07:01:28.802Z,90.80
2023-02-05T07:03:57.103Z,90.90
2023-02-05T07:06:27.221Z,90.90
2023-02-05T07:08:56.092Z,90.80
2023-02-05T07:11:24.639Z,90.90
2023-02-05T07:13:53.158Z,90.90
2023-02-05T07:16:21.475Z,90.80
2023-02-05T07:18:49.819Z,90.80
2023-02-05T07:21:18.431Z,90.90
2023-02-05T07:23:48.045Z,90.90
2023-02-05T07:26:18.314Z,90.80
2023-02-05T07:28:46.614Z,90.80
2023-02-05T07:31:17.141Z,90.80
2023-02-05T07:33:46.258Z,90.70
2023-02-05T07:36:17.187Z,90.80
2023-02-05T07:38:48.019Z,90.80
2023-02-05T07:41:17.348Z,90.90
2023-02-05T07:43:45.706Z,91.00
2023-02-05T07:46:15.587Z,91.00
2023-02-05T07:48:43.865Z,91.00
2023-02-05T07:51:16.689Z,91.10
2023-02-05T07:53:45.172Z,91.00
2023-02-05T07:56:15.644Z,91.10
2023-02-05T07:58:44.482Z,91.00
2023-02-05T08:01:12.742Z,91.00
2023-02-05T08:03:41.059Z,91.00
2023-02-05T08:06:13.885Z,91.00
2023-02-05T08:08:42.219Z,91.00
2023-02-05T08:11:16.659Z,91.00
2023-02-05T08:13:44.941Z,91.30
2023-02-05T08:16:15.629Z,90.90
2023-02-05T08:18:44.305Z,91.00
2023-02-05T08:21:12.634Z,91.00
2023-02-05T08:23:40.874Z,90.90
2023-02-05T08:26:09.129Z,90.80
2023-02-05T08:28:38.672Z,90.80
2023-02-05T08:31:11.698Z,90.90
2023-02-05T08:33:40.198Z,90.90
2023-02-05T08:36:09.569Z,90.90
2023-02-05T08:38:37.866Z,90.90
2023-02-05T08:41:12.348Z,90.80
2023-02-05T08:43:43.974Z,90.80
2023-02-05T08:46:14.829Z,90.90
2023-02-05T08:48:43.307Z,90.80
2023-02-05T08:51:12.430Z,90.70
2023-02-05T08:53:41.431Z,90.70
2023-02-05T08:56:10.827Z,90.70
2023-02-05T08:58:39.792Z,90.80
2023-02-05T09:01:12.710Z,90.80
2023-02-05T09:03:41.664Z,90.70
2023-02-05T09:06:12.682Z,90.80
2023-02-05T09:08:41.145Z,90.70
2023-02-05T09:11:09.677Z,90.80
2023-02-05T09:13:37.953Z,90.70
2023-02-05T09:16:06.634Z,90.70
2023-02-05T09:18:36.272Z,90.70
2023-02-05T09:21:08.656Z,90.80
2023-02-05T09:23:37.750Z,90.90
2023-02-05T09:26:06.969Z,90.90
2023-02-05T09:28:35.201Z,90.90
2023-02-05T09:31:08.410Z,91.30
2023-02-05T09:33:38.117Z,90.90
2023-02-05T09:36:07.695Z,90.90
2023-02-05T09:38:35.923Z,90.90
2023-02-05T09:41:09.220Z,90.90
2023-02-05T09:43:49.386Z,90.90
2023-02-05T09:46:25.668Z,90.90
2023-02-05T09:49:00.771Z,90.90
2023-02-05T09:51:34.710Z,90.80
2023-02-05T09:54:13.330Z,90.90
2023-02-05T09:56:43.234Z,90.90
2023-02-05T09:59:15.648Z,90.80
2023-02-05T10:01:49.119Z,90.90
2023-02-05T10:04:19.511Z,90.80
2023-02-05T10:07:06.382Z,90.80
2023-02-05T10:09:47.904Z,90.80
2023-02-05T10:12:29.421Z,90.80
2023-02-05T10:15:09.058Z,90.70
2023-02-05T10:17:53.591Z,90.80
2023-02-05T10:20:51.278Z,90.80
2023-02-05T10:23:34.102Z,90.90
2023-02-05T10:26:10.671Z,90.90
2023-02-05T10:28:49.646Z,91.00
2023-02-05T10:31:28.899Z,91.00
2023-02-05T10:34:05.417Z,90.90
2023-02-05T10:36:35.348Z,90.90
2023-02-05T10:39:13.493Z,90.90
2023-02-05T10:41:45.876Z,91.00
2023-02-05T10:44:19.325Z,91.30
2023-02-05T10:46:51.931Z,91.00
2023-02-05T10:49:25.448Z,91.00
2023-02-05T10:51:55.201Z,90.90
2023-02-05T10:54:29.104Z,90.90
2023-02-05T10:56:58.609Z,90.90
2023-02-05T10:59:30.352Z,90.90
2023-02-05T11:02:03.194Z,90.90
2023-02-05T11:04:38.925Z,90.90
2023-02-05T11:07:13.312Z,90.90
2023-02-05T11:09:41.654Z,90.90
2023-02-05T11:12:21.231Z,90.90
2023-02-05T11:14:57.844Z,90.90
2023-02-05T11:17:31.814Z,90.90
2023-02-05T11:20:03.992Z,90.90
2023-02-05T11:22:36.245Z,90.90
2023-02-05T11:25:16.864Z,90.80
2023-02-05T11:27:53.443Z,90.80
2023-02-05T11:30:50.066Z,90.80
2023-02-05T11:33:31.239Z,90.90
2023-02-05T11:36:02.848Z,90.80
2023-02-05T11:38:38.450Z,90.80
2023-02-05T11:41:09.779Z,90.80
2023-02-05T11:43:41.590Z,90.80
2023-02-05T11:46:15.627Z,90.80
2023-02-05T11:48:46.009Z,91.10
2023-02-05T11:51:16.791Z,90.70
2023-02-05T11:53:53.326Z,90.70
2023-02-05T11:56:25.409Z,90.70
2023-02-05T11:59:01.885Z,90.70
2023-02-05T12:01:34.080Z,90.70
2023-02-05T12:04:04.330Z,90.70
2023-02-05T12:06:38.290Z,90.70
2023-02-05T12:09:10.190Z,90.70
2023-02-05T12:12:03.749Z,90.70
2023-02-05T12:14:41.479Z,90.70
2023-02-05T12:17:27.251Z,90.70
2023-02-05T12:20:03.050Z,90.80
2023-02-05T12:22:50.320Z,90.70
2023-02-05T12:25:26.544Z,90.70
2023-02-05T12:28:15.388Z,90.70
2023-02-05T12:30:54.999Z,90.60
2023-02-05T12:33:49.132Z,90.60
2023-02-05T12:36:40.532Z,90.70
2023-02-05T12:39:22.664Z,90.70
2023-02-05T12:42:01.932Z,90.70
2023-02-05T12:44:44.251Z,90.60
2023-02-05T12:47:30.728Z,90.60
2023-02-05T12:50:11.677Z,90.60
2023-02-05T12:52:53.918Z,90.50
2023-02-05T12:55:36.134Z,90.50
2023-02-05T12:58:08.410Z,90.50
2023-02-05T13:00:45.561Z,90.50
2023-02-05T13:03:23.881Z,90.50
2023-02-05T13:05:56.271Z,90.50
2023-02-05T13:08:33.837Z,90.50
2023-02-05T13:11:08.987Z,90.50
2023-02-05T13:13:51.596Z,90.50
2023-02-05T13:16:21.480Z,90.50
2023-02-05T13:18:58.873Z,90.50
2023-02-05T13:21:46.037Z,90.60
2023-02-05T13:24:43.479Z,90.50
2023-02-05T13:27:42.165Z,90.50
2023-02-05T13:30:16.881Z,90.50
2023-02-05T13:32:48.778Z,90.50
2023-02-05T13:35:17.696Z,90.50
2023-02-05T13:38:17.411Z,90.50
2023-02-05T13:41:10.836Z,90.50
2023-02-05T13:44:19.843Z,90.50
2023-02-05T13:47:19.882Z,90.60
2023-02-05T13:50:42.129Z,90.50
2023-02-05T13:53:26.209Z,90.50
2023-02-05T13:56:12.039Z,90.50
2023-02-05T13:58:49.364Z,90.50
2023-02-05T14:01:23.354Z,90.40
2023-02-05T14:03:58.967Z,90.40
2023-02-05T14:06:31.655Z,90.40
2023-02-05T14:09:02.555Z,90.40
2023-02-05T14:11:47.721Z,90.40
2023-02-05T14:14:26.826Z,90.50
2023-02-05T14:16:56.088Z,90.50
2023-02-05T14:19:28.394Z,90.40
2023-02-05T14:22:07.287Z,90.40
2023-02-05T14:24:44.911Z,90.40
2023-02-05T14:27:50.263Z,90.40
2023-02-05T14:30:52.401Z,90.40
2023-02-05T14:33:38.513Z,90.40
2023-02-05T14:36:33.072Z,90.40
2023-02-05T14:39:06.118Z,90.20
2023-02-05T14:41:50.588Z,90.30
2023-02-05T14:44:22.637Z,90.30
2023-02-05T14:47:03.004Z,90.30
2023-02-05T14:49:38.710Z,90.20
2023-02-05T14:52:20.578Z,90.20
2023-02-05T14:54:54.400Z,90.20
2023-02-05T14:57:28.873Z,90.20
2023-02-05T15:00:00.258Z,90.10
2023-02-05T15:03:01.806Z,90.50
2023-02-05T15:05:35.972Z,90.20
2023-02-05T15:08:13.049Z,90.30
2023-02-05T15:10:49.379Z,90.20
2023-02-05T15:13:18.758Z,90.20
2023-02-05T15:16:16.117Z,90.20
2023-02-05T15:18:45.360Z,90.20
2023-02-05T15:21:18.908Z,90.20
2023-02-05T15:23:53.665Z,90.20
2023-02-05T15:26:29.228Z,90.20
2023-02-05T15:29:01.138Z,90.20
2023-02-05T15:31:34.865Z,90.20
2023-02-05T15:34:22.048Z,90.20
2023-02-05T15:36:55.791Z,90.20
2023-02-05T15:39:31.374Z,90.20
2023-02-05T15:42:05.156Z,90.30
2023-02-05T15:44:35.343Z,90.30
2023-02-05T15:47:08.388Z,90.20
2023-02-05T15:49:39.132Z,90.20
2023-02-05T15:52:07.999Z,90.20
2023-02-05T15:54:38.897Z,90.30
2023-02-05T15:57:08.595Z,90.20
2023-02-05T15:59:36.894Z,90.20
2023-02-05T16:02:10.100Z,90.30
2023-02-05T16:04:40.067Z,90.30
2023-02-05T16:07:20.389Z,90.30
2023-02-05T16:09:53.859Z,90.30
2023-02-05T16:12:22.276Z,90.30
2023-02-05T16:14:59.648Z,90.30
2023-02-05T16:17:33.186Z,90.30
2023-02-05T16:20:16.045Z,90.40
2023-02-05T16:22:49.030Z,90.40
2023-02-05T16:25:30.392Z,90.40
2023-02-05T16:28:00.763Z,90.30
2023-02-05T16:30:35.666Z,90.40
2023-02-05T16:33:06.038Z,90.40
2023-02-05T16:35:38.586Z,90.40
2023-02-05T16:38:09.201Z,90.40
2023-02-05T16:40:43.187Z,90.30
2023-02-05T16:43:21.976Z,90.30
2023-02-05T16:46:26.534Z,90.40
2023-02-05T16:48:57.118Z,90.40
2023-02-05T16:51:56.324Z,90.40
2023-02-05T16:54:33.514Z,90.40
2023-02-05T16:57:10.826Z,90.40
2023-02-05T16:59:49.652Z,90.40
2023-02-05T17:02:37.168Z,90.40
2023-02-05T17:05:08.131Z,90.40
2023-02-05T17:07:36.575Z,90.40
2023-02-05T17:10:17.220Z,90.40
2023-02-05T17:12:54.557Z,90.30
2023-02-05T17:15:29.372Z,90.30
2023-02-05T17:18:04.426Z,90.30
2023-02-05T17:20:34.237Z,90.30
2023-02-05T17:23:13.434Z,90.30
2023-02-05T17:25:49.586Z,90.30
2023-02-05T17:28:21.913Z,90.30
2023-02-05T17:30:50.722Z,90.30
2023-02-05T17:33:21.066Z,90.30
2023-02-05T17:35:50.812Z,90.40
2023-02-05T17:38:20.509Z,90.30
2023-02-05T17:40:48.978Z,90.30
2023-02-05T17:43:18.512Z,90.30
2023-02-05T17:45:46.716Z,90.20
2023-02-05T17:48:14.931Z,90.30
2023-02-05T17:50:43.223Z,90.30
2023-02-05T17:53:14.042Z,90.30
2023-02-05T17:55:42.357Z,90.30
2023-02-05T17:58:10.516Z,90.20
2023-02-05T18:00:40.290Z,90.20
2023-02-05T18:03:08.560Z,90.20
2023-02-05T18:05:36.716Z,90.20
2023-02-05T18:08:06.351Z,90.10
2023-02-05T18:10:35.035Z,90.20
2023-02-05T18:13:03.384Z,90.20
2023-02-05T18:15:33.303Z,90.10
2023-02-05T18:18:05.722Z,90.10
2023-02-05T18:20:34.277Z,90.10
2023-02-05T18:23:03.080Z,90.20
2023-02-05T18:25:31.347Z,90.30
2023-02-05T18:27:59.604Z,90.30
2023-02-05T18:30:28.617Z,90.30
2023-02-05T18:32:56.899Z,90.30
2023-02-05T18:35:26.461Z,90.20
2023-02-05T18:37:54.603Z,90.20
2023-02-05T18:40:22.994Z,90.20
2023-02-05T18:42:53.801Z,90.10
2023-02-05T18:45:22.105Z,90.20
2023-02-05T18:47:52.516Z,90.20
2023-02-05T18:50:20.910Z,90.30
2023-02-05T18:52:50.760Z,90.20
2023-02-05T18:55:19.194Z,90.20
2023-02-05T18:57:47.446Z,90.60
2023-02-05T19:00:16.446Z,90.30
2023-02-05T19:02:44.789Z,90.30
2023-02-05T19:05:12.929Z,90.70
2023-02-05T19:07:41.240Z,90.30
2023-02-05T19:10:11.163Z,90.30
2023-02-05T19:12:39.454Z,90.40
2023-02-05T19:15:08.426Z,90.40
2023-02-05T19:17:36.589Z,90.30
2023-02-05T19:20:05.910Z,90.30
2023-02-05T19:22:34.060Z,90.30
2023-02-05T19:25:02.306Z,90.30
2023-02-05T19:27:31.948Z,90.30
2023-02-05T19:30:00.196Z,90.30
2023-02-05T19:32:28.525Z,90.30
2023-02-05T19:34:56.772Z,90.30
2023-02-05T19:37:24.963Z,90.30
2023-02-05T19:39:53.148Z,90.40
2023-02-05T19:42:21.411Z,90.40
2023-02-05T19:44:50.996Z,90.40
2023-02-05T19:47:19.268Z,90.30
2023-02-05T19:49:47.484Z,90.30
2023-02-05T19:52:15.751Z,90.30
2023-02-05T19:54:44.097Z,90.30
2023-02-05T19:57:12.457Z,90.40
2023-02-05T19:59:40.711Z,90.30
2023-02-05T20:02:11.465Z,90.20
2023-02-05T20:04:41.952Z,90.20
2023-02-05T20:07:10.240Z,90.20
2023-02-05T20:09:38.548Z,90.30
2023-02-05T20:12:07.116Z,90.20
2023-02-05T20:14:35.453Z,90.20
2023-02-05T20:17:03.948Z,90.20
2023-02-05T20:19:33.497Z,90.20
2023-02-05T20:22:01.777Z,90.30
2023-02-05T20:24:29.961Z,90.70
2023-02-05T20:26:58.636Z,90.20
2023-02-05T20:29:44.129Z,90.20
2023-02-05T20:32:12.501Z,90.20
2023-02-05T20:34:47.592Z,90.20
2023-02-05T20:37:15.863Z,90.20
2023-02-05T20:39:44.829Z,90.20
2023-02-05T20:42:14.348Z,90.20
2023-02-05T20:44:43.837Z,90.20
2023-02-05T20:47:14.605Z,90.30
2023-02-05T20:49:44.154Z,90.20
2023-02-05T20:52:13.107Z,90.20
2023-02-05T20:54:41.761Z,90.30
2023-02-05T20:57:10.136Z,90.30
2023-02-05T20:59:38.635Z,90.30
2023-02-05T21:02:07.915Z,90.30
2023-02-05T21:04:37.354Z,90.30
2023-02-05T21:07:06.920Z,90.30
2023-02-05T21:09:35.232Z,90.30
2023-02-05T21:12:03.488Z,90.30
2023-02-05T21:14:31.986Z,90.30
2023-02-05T21:17:00.853Z,90.30
2023-02-05T21:19:29.162Z,90.30
2023-02-05T21:21:57.663Z,90.30
2023-02-05T21:24:27.194Z,90.30
2023-02-05T21:26:55.453Z,90.30
2023-02-05T21:29:23.725Z,90.30
2023-02-05T21:31:55.538Z,90.20
2023-02-05T21:34:27.142Z,90.20
2023-02-05T21:36:56.371Z,90.20
2023-02-05T21:39:25.525Z,90.10
2023-02-05T21:41:55.489Z,90.10
2023-02-05T21:44:23.718Z,90.20
2023-02-05T21:46:53.297Z,90.20
2023-02-05T21:49:21.542Z,90.10
2023-02-05T21:51:50.399Z,90.50
2023-02-05T21:54:20.760Z,90.10
2023-02-05T21:56:48.980Z,90.10
2023-02-05T21:59:20.010Z,90.10
2023-02-05T22:01:48.281Z,90.10
2023-02-05T22:04:17.556Z,90.10
2023-02-05T22:06:45.754Z,90.10
2023-02-05T22:09:16.631Z,90.00
2023-02-05T22:11:44.898Z,90.00
2023-02-05T22:14:13.493Z,90.00
2023-02-05T22:16:43.224Z,89.90
2023-02-05T22:19:11.536Z,90.00
2023-02-05T22:21:41.408Z,90.00
2023-02-05T22:24:13.438Z,90.00
2023-02-05T22:26:41.920Z,90.00
2023-02-05T22:29:13.251Z,90.10
2023-02-05T22:31:44.329Z,90.10
2023-02-05T22:34:12.989Z,90.10
2023-02-05T22:36:41.230Z,90.10
2023-02-05T22:39:09.618Z,90.10
2023-02-05T22:41:39.521Z,90.10
2023-02-05T22:44:09.126Z,90.10
2023-02-05T22:46:40.412Z,90.10
2023-02-05T22:49:12.732Z,90.10
2023-02-05T22:51:42.043Z,90.20
2023-02-05T22:54:12.929Z,90.10
2023-02-05T22:56:41.170Z,90.10
2023-02-05T22:59:09.582Z,90.10
2023-02-05T23:01:39.357Z,90.20
2023-02-05T23:04:11.826Z,90.20
2023-02-05T23:06:41.747Z,90.20
2023-02-05T23:09:12.071Z,90.10
2023-02-05T23:11:40.492Z,90.10
2023-02-05T23:14:10.295Z,90.10
2023-02-05T23:16:40.658Z,90.10
2023-02-05T23:19:13.575Z,90.10
2023-02-05T23:21:42.093Z,90.10
2023-02-05T23:24:10.522Z,90.10
2023-02-05T23:26:42.110Z,90.10
2023-02-05T23:29:12.597Z,90.10
2023-02-05T23:31:40.887Z,90.20
2023-02-05T23:34:09.300Z,90.10
2023-02-05T23:36:39.036Z,90.10
2023-02-05T23:39:07.211Z,90.10
2023-02-05T23:41:39.734Z,90.10
2023-02-05T23:44:12.062Z,90.10
2023-02-05T23:46:41.366Z,90.10
2023-02-05T23:49:10.145Z,90.10
2023-02-05T23:51:39.861Z,90.40
2023-02-05T23:54:09.389Z,90.10
2023-02-05T23:56:38.236Z,90.10
2023-02-05T23:59:07.709Z,90.20
